Time;durP1;ratioP1;P1;durP2;ratioP2;P2;SDS_P1;SDS_P2;PMS_P1;PMS_P2;Temp;Humidity;BMP_temperature;BMP_pressure;BME280_temperature;BME280_humidity;BME280_pressure;Samples;Min_cycle;Max_cycle;Signal;HPM_P1;HPM_P2
2022/08/26 00:00:50;;;;;;;16.52;6.70;;;21.20;99.90;;;;;;5006513;28;20117;-93
2022/08/26 00:03:16;;;;;;;11.68;6.10;;;21.20;99.90;;;;;;5007907;28;20423;-93
2022/08/26 00:05:43;;;;;;;15.68;5.70;;;21.20;99.90;;;;;;5002979;28;20042;-93
2022/08/26 00:08:12;;;;;;;11.45;5.90;;;21.20;99.90;;;;;;5010477;28;20532;-93
2022/08/26 00:10:38;;;;;;;13.60;5.00;;;21.20;99.90;;;;;;5015111;28;20022;-92
2022/08/26 00:13:05;;;;;;;8.93;4.82;;;21.20;99.90;;;;;;5011298;28;20401;-92
2022/08/26 00:15:31;;;;;;;9.65;4.82;;;21.10;99.90;;;;;;5014315;28;20515;-91
2022/08/26 00:17:57;;;;;;;10.73;5.45;;;21.20;99.90;;;;;;5015511;28;20022;-92
2022/08/26 00:20:27;;;;;;;9.65;5.25;;;21.20;99.90;;;;;;5016088;28;20025;-94
2022/08/26 00:22:52;;;;;;;9.43;3.78;;;21.10;99.90;;;;;;5003660;28;20030;-93
2022/08/26 00:25:18;;;;;;;11.55;3.92;;;21.20;99.90;;;;;;5016240;28;20032;-91
2022/08/26 00:27:44;;;;;;;9.93;3.40;;;21.20;99.90;;;;;;5014771;28;20037;-91
2022/08/26 00:30:14;;;;;;;10.30;3.20;;;21.20;99.90;;;;;;5021688;28;20030;-91
2022/08/26 00:32:40;;;;;;;9.82;2.67;;;21.20;99.90;;;;;;5004466;28;20397;-93
2022/08/26 00:35:06;;;;;;;7.28;2.75;;;21.20;99.90;;;;;;5017275;28;20032;-92
2022/08/26 00:37:32;;;;;;;6.47;2.70;;;21.20;99.90;;;;;;5022016;28;20026;-92
2022/08/26 00:39:58;;;;;;;6.05;1.90;;;21.20;99.90;;;;;;5024270;28;20030;-92
2022/08/26 00:42:24;;;;;;;6.75;2.30;;;21.20;99.90;;;;;;5008728;28;20536;-93
2022/08/26 00:44:50;;;;;;;8.18;2.58;;;21.20;99.90;;;;;;5013929;28;20038;-92
2022/08/26 00:47:27;;;;;;;7.65;2.47;;;21.20;99.90;;;;;;5006498;28;20030;-93
2022/08/26 00:49:54;;;;;;;9.35;2.22;;;21.20;99.90;;;;;;5010367;28;20080;-92
2022/08/26 00:52:21;;;;;;;7.93;2.40;;;21.20;99.90;;;;;;5001492;28;20489;-93
2022/08/26 00:55:22;;;;;;;5.07;1.63;;;21.10;99.90;;;;;;5010926;28;20076;-93
2022/08/26 00:57:49;;;;;;;5.25;1.95;;;21.20;99.90;;;;;;5007276;28;20061;-93
2022/08/26 01:00:23;;;;;;;6.22;1.63;;;21.20;99.90;;;;;;5016572;28;20482;-95
2022/08/26 01:02:49;;;;;;;7.45;2.42;;;21.20;99.90;;;;;;5014946;28;20076;-93
2022/08/26 01:05:17;;;;;;;6.10;2.00;;;21.20;99.90;;;;;;5013570;28;20018;-93
2022/08/26 01:07:42;;;;;;;6.80;2.58;;;21.10;99.90;;;;;;5015949;28;20045;-92
2022/08/26 01:10:18;;;;;;;5.00;2.00;;;21.10;99.90;;;;;;5011435;28;20030;-93
2022/08/26 01:13:04;;;;;;;6.60;2.35;;;21.10;99.90;;;;;;4999184;28;20049;-92
2022/08/26 01:15:33;;;;;;;5.60;2.10;;;21.10;99.90;;;;;;5007663;28;20029;-92
2022/08/26 01:18:01;;;;;;;6.32;2.22;;;21.10;99.90;;;;;;5013908;28;20026;-92
2022/08/26 01:21:08;;;;;;;5.18;2.40;;;21.10;99.90;;;;;;5018865;28;20022;-91
2022/08/26 01:23:42;;;;;;;10.32;2.40;;;21.00;99.90;;;;;;5009362;28;20033;-93
2022/08/26 01:26:15;;;;;;;7.63;2.47;;;21.00;99.90;;;;;;5016912;28;20493;-94
2022/08/26 01:28:42;;;;;;;8.32;2.70;;;20.90;99.90;;;;;;5017693;28;20034;-95
2022/08/26 01:31:11;;;;;;;5.95;2.80;;;20.90;99.90;;;;;;5016997;28;20037;-92
2022/08/26 01:33:46;;;;;;;5.45;2.80;;;20.80;99.90;;;;;;5017142;28;20060;-93
2022/08/26 01:36:13;;;;;;;6.15;2.60;;;20.80;99.90;;;;;;5016831;28;20033;-94
2022/08/26 01:38:40;;;;;;;6.65;2.88;;;20.80;99.90;;;;;;5015990;28;20025;-92
2022/08/26 01:41:06;;;;;;;10.48;3.35;;;20.70;99.90;;;;;;5015813;28;20034;-93
2022/08/26 01:43:33;;;;;;;5.20;2.78;;;20.70;99.90;;;;;;5016094;28;20146;-93
2022/08/26 01:46:01;;;;;;;6.70;2.65;;;20.70;99.90;;;;;;5017196;28;20148;-94
2022/08/26 01:48:30;;;;;;;7.10;3.03;;;20.60;99.90;;;;;;5016314;28;20087;-92
2022/08/26 01:50:57;;;;;;;5.90;3.17;;;20.60;99.90;;;;;;5016977;28;20481;-92
2022/08/26 01:53:23;;;;;;;5.75;2.95;;;20.60;99.90;;;;;;5016913;28;20501;-94
2022/08/26 01:55:54;;;;;;;8.85;2.95;;;20.60;99.90;;;;;;5008076;28;20103;-94
2022/08/26 01:58:25;;;;;;;5.95;3.20;;;20.60;99.90;;;;;;5023728;28;20375;-91
2022/08/26 02:00:51;;;;;;;8.93;3.10;;;20.60;99.90;;;;;;5015440;28;20055;-95
2022/08/26 02:03:17;;;;;;;9.98;3.30;;;20.60;99.90;;;;;;5008387;28;20533;-93
2022/08/26 02:05:58;;;;;;;6.50;2.38;;;20.60;99.90;;;;;;5010920;28;20034;-93
2022/08/26 02:08:43;;;;;;;7.32;2.67;;;20.60;99.90;;;;;;4998051;28;20025;-96
2022/08/26 02:11:09;;;;;;;7.70;1.98;;;20.50;99.90;;;;;;5008715;28;20496;-95
2022/08/26 02:13:46;;;;;;;6.97;2.25;;;20.50;99.90;;;;;;5017426;28;20436;-93
2022/08/26 02:16:16;;;;;;;4.43;1.92;;;20.50;99.90;;;;;;5014670;28;20021;-92
2022/08/26 02:18:43;;;;;;;5.88;1.70;;;20.50;99.90;;;;;;5013319;28;20036;-94
2022/08/26 02:21:10;;;;;;;7.03;1.85;;;20.50;99.90;;;;;;5000803;28;20105;-93
2022/08/26 02:23:37;;;;;;;5.13;1.65;;;20.50;99.90;;;;;;5029597;28;20037;-92
2022/08/26 02:26:14;;;;;;;6.05;1.85;;;20.50;99.90;;;;;;5011428;28;20477;-94
2022/08/26 02:28:51;;;;;;;6.40;1.65;;;20.50;99.90;;;;;;5017130;28;20164;-94
2022/08/26 02:31:16;;;;;;;4.88;1.80;;;20.60;99.90;;;;;;5014684;28;20057;-94
2022/08/26 02:33:42;;;;;;;6.20;1.73;;;20.60;99.90;;;;;;5016430;28;20026;-92
2022/08/26 02:36:07;;;;;;;7.10;1.45;;;20.60;99.90;;;;;;5016458;28;20017;-93
2022/08/26 02:38:34;;;;;;;9.70;1.45;;;20.60;99.90;;;;;;5016186;28;20025;-92
2022/08/26 02:41:00;;;;;;;4.50;1.48;;;20.60;99.90;;;;;;5024879;28;20044;-92
2022/08/26 02:43:26;;;;;;;7.00;1.38;;;20.60;99.90;;;;;;5001370;28;20041;-93
2022/08/26 02:45:51;;;;;;;9.75;1.63;;;20.60;99.90;;;;;;5013639;28;20141;-92
2022/08/26 02:48:20;;;;;;;7.75;1.35;;;20.60;99.90;;;;;;5002908;28;20033;-94
2022/08/26 02:50:46;;;;;;;4.35;1.02;;;20.60;99.90;;;;;;5012746;28;20026;-92
2022/08/26 02:53:11;;;;;;;7.22;1.33;;;20.60;99.90;;;;;;5011748;28;20040;-92
2022/08/26 02:55:39;;;;;;;4.85;1.10;;;20.60;99.90;;;;;;5011592;28;20026;-92
2022/08/26 02:58:04;;;;;;;7.53;1.25;;;20.60;99.90;;;;;;5015482;28;20049;-93
2022/08/26 03:00:31;;;;;;;6.35;1.10;;;20.60;99.90;;;;;;5014895;28;20029;-93
2022/08/26 03:02:58;;;;;;;4.00;1.13;;;20.60;99.90;;;;;;5015555;28;20029;-92
2022/08/26 03:05:23;;;;;;;4.30;0.90;;;20.60;99.90;;;;;;5017683;28;20367;-93
2022/08/26 03:07:49;;;;;;;3.50;0.80;;;20.60;99.90;;;;;;5010750;28;20041;-92
2022/08/26 03:10:16;;;;;;;3.17;1.02;;;20.60;99.90;;;;;;5019774;28;20022;-92
2022/08/26 03:12:44;;;;;;;4.63;0.90;;;20.60;99.90;;;;;;5014460;28;20033;-92
2022/08/26 03:15:10;;;;;;;3.58;0.80;;;20.60;99.90;;;;;;5011078;28;20091;-94
2022/08/26 03:17:36;;;;;;;4.28;1.20;;;20.60;99.90;;;;;;5023660;28;20095;-91
2022/08/26 03:20:04;;;;;;;6.07;0.98;;;20.60;99.90;;;;;;5016593;28;20037;-92
2022/08/26 03:22:29;;;;;;;4.35;0.80;;;20.60;99.90;;;;;;5009157;28;20067;-93
2022/08/26 03:24:55;;;;;;;5.60;0.80;;;20.60;99.90;;;;;;5003523;28;20045;-94
2022/08/26 03:27:20;;;;;;;4.35;0.90;;;20.60;99.90;;;;;;5013306;28;20018;-93
2022/08/26 03:32:30;;;;;;;4.43;0.50;;;20.60;99.90;;;;;;5030748;28;20084;-93
2022/08/26 03:34:56;;;;;;;4.35;0.60;;;20.50;99.90;;;;;;5014076;28;20026;-93
2022/08/26 03:37:22;;;;;;;3.80;0.50;;;20.60;99.90;;;;;;5008978;28;20017;-93
2022/08/26 03:39:48;;;;;;;8.20;0.60;;;20.60;99.90;;;;;;5007745;28;20051;-92
2022/08/26 03:42:13;;;;;;;4.68;0.77;;;20.60;99.90;;;;;;5015021;28;20040;-93
2022/08/26 03:44:39;;;;;;;4.43;0.60;;;20.50;99.90;;;;;;5008963;28;20037;-94
2022/08/26 03:47:06;;;;;;;2.58;0.45;;;20.50;99.90;;;;;;5020361;28;20029;-94
2022/08/26 03:49:34;;;;;;;3.88;0.65;;;20.50;99.90;;;;;;5015805;28;20018;-85
2022/08/26 03:52:01;;;;;;;4.05;0.93;;;20.40;99.90;;;;;;5015881;28;20117;-84
2022/08/26 03:54:26;;;;;;;3.17;0.70;;;20.50;99.90;;;;;;5018288;28;20482;-85
2022/08/26 03:56:52;;;;;;;5.28;0.70;;;20.40;99.90;;;;;;5011959;28;20026;-84
2022/08/26 03:59:18;;;;;;;7.43;0.68;;;20.40;99.90;;;;;;5017492;28;20030;-84
2022/08/26 04:01:43;;;;;;;5.00;0.55;;;20.40;99.90;;;;;;5017804;28;20166;-85
2022/08/26 04:04:09;;;;;;;7.97;0.60;;;20.40;99.90;;;;;;5016580;28;20069;-85
2022/08/26 04:06:43;;;;;;;4.50;0.60;;;20.40;99.90;;;;;;5011193;28;20048;-85
2022/08/26 04:09:16;;;;;;;3.80;0.50;;;20.40;99.90;;;;;;5017316;28;20036;-85
2022/08/26 04:11:44;;;;;;;5.55;0.30;;;20.40;99.90;;;;;;5016125;28;20030;-85
2022/08/26 04:14:22;;;;;;;4.05;0.40;;;20.40;99.90;;;;;;5015353;28;20034;-85
2022/08/26 04:16:50;;;;;;;5.07;0.60;;;20.40;99.90;;;;;;5021908;28;20033;-85
2022/08/26 04:19:17;;;;;;;5.07;0.55;;;20.40;99.90;;;;;;5019138;28;20121;-85
2022/08/26 04:21:44;;;;;;;4.28;0.50;;;20.40;99.90;;;;;;5012942;28;20112;-85
2022/08/26 04:24:12;;;;;;;7.65;1.40;;;20.40;99.90;;;;;;5012982;28;20583;-85
2022/08/26 04:26:38;;;;;;;5.38;0.45;;;20.40;99.90;;;;;;5025879;28;20073;-85
2022/08/26 04:29:06;;;;;;;6.78;0.52;;;20.40;99.90;;;;;;5016256;28;20029;-85
2022/08/26 04:31:36;;;;;;;1.98;0.38;;;20.40;99.90;;;;;;5020176;28;20108;-85
2022/08/26 04:34:02;;;;;;;2.60;0.40;;;20.40;99.90;;;;;;5018788;28;20072;-85
2022/08/26 04:36:28;;;;;;;5.22;0.47;;;20.40;99.90;;;;;;5019065;28;20029;-85
2022/08/26 04:38:54;;;;;;;4.20;0.68;;;20.40;99.90;;;;;;5012961;28;20041;-85
2022/08/26 04:41:19;;;;;;;3.03;0.50;;;20.40;99.90;;;;;;5020166;28;20056;-85
2022/08/26 04:43:46;;;;;;;3.42;0.60;;;20.50;99.90;;;;;;5019683;28;20077;-85
2022/08/26 04:46:14;;;;;;;5.13;0.50;;;20.40;99.90;;;;;;5019214;28;20029;-86
2022/08/26 04:48:40;;;;;;;6.38;0.40;;;20.40;99.90;;;;;;5018674;28;20033;-86
2022/08/26 04:51:08;;;;;;;2.88;0.40;;;20.40;99.90;;;;;;5002752;28;20029;-86
2022/08/26 04:53:33;;;;;;;7.03;0.60;;;20.50;99.90;;;;;;5017873;28;20057;-85
2022/08/26 04:55:59;;;;;;;3.50;0.45;;;20.50;99.90;;;;;;5022063;28;20496;-86
2022/08/26 04:58:25;;;;;;;3.35;0.40;;;20.50;99.90;;;;;;5017433;28;20021;-85
2022/08/26 05:00:52;;;;;;;5.50;0.75;;;20.50;99.90;;;;;;5010271;28;20049;-84
2022/08/26 05:03:18;;;;;;;4.72;0.60;;;20.50;99.90;;;;;;5004264;28;20029;-85
2022/08/26 05:05:45;;;;;;;4.35;0.40;;;20.50;99.90;;;;;;5008545;28;20041;-85
2022/08/26 05:08:13;;;;;;;4.22;0.60;;;20.60;99.90;;;;;;5010153;28;20026;-85
2022/08/26 05:10:45;;;;;;;6.05;0.80;;;20.60;99.90;;;;;;5015358;28;20021;-85
2022/08/26 05:13:12;;;;;;;5.50;0.50;;;20.60;99.90;;;;;;5007111;28;20072;-84
2022/08/26 05:15:38;;;;;;;4.93;0.40;;;20.60;99.90;;;;;;5008994;28;20026;-85
2022/08/26 05:18:05;;;;;;;4.78;0.40;;;20.60;99.90;;;;;;5014465;28;20026;-85
2022/08/26 05:20:31;;;;;;;7.75;0.65;;;20.60;99.90;;;;;;5017643;28;20026;-85
2022/08/26 05:22:59;;;;;;;5.57;0.60;;;20.60;99.90;;;;;;4998327;28;20402;-84
2022/08/26 05:25:28;;;;;;;36.47;1.48;;;20.60;99.90;;;;;;5007491;28;20022;-84
2022/08/26 05:27:54;;;;;;;7.82;0.60;;;20.60;99.90;;;;;;5024497;28;20114;-86
2022/08/26 05:30:20;;;;;;;5.43;0.57;;;20.70;99.90;;;;;;5017853;28;20073;-85
2022/08/26 05:32:49;;;;;;;8.93;0.65;;;20.70;99.90;;;;;;5012745;28;20071;-83
2022/08/26 05:35:16;;;;;;;6.25;0.43;;;20.70;99.90;;;;;;5014436;28;20053;-83
2022/08/26 05:37:42;;;;;;;6.70;0.50;;;20.70;99.90;;;;;;5015778;28;20120;-83
2022/08/26 05:40:08;;;;;;;4.38;0.40;;;20.70;99.90;;;;;;5006475;28;20982;-92
2022/08/26 05:42:33;;;;;;;6.25;0.45;;;20.80;99.90;;;;;;5018540;28;20022;-92
2022/08/26 05:44:59;;;;;;;7.40;0.38;;;20.70;99.90;;;;;;5026723;28;20038;-91
2022/08/26 05:47:25;;;;;;;5.30;0.40;;;20.70;99.90;;;;;;5010584;28;20053;-91
2022/08/26 05:49:51;;;;;;;4.90;0.38;;;20.70;99.90;;;;;;5020445;28;20026;-90
2022/08/26 05:52:16;;;;;;;3.03;0.40;;;20.80;99.90;;;;;;5016920;28;20109;-89
2022/08/26 05:54:42;;;;;;;3.13;0.30;;;20.80;99.90;;;;;;5011491;28;20053;-91
2022/08/26 05:57:07;;;;;;;4.43;0.32;;;20.80;99.90;;;;;;5023667;28;20063;-89
2022/08/26 05:59:33;;;;;;;7.00;0.40;;;20.80;99.90;;;;;;5014024;28;20037;-90
2022/08/26 06:01:58;;;;;;;3.42;0.40;;;20.80;99.90;;;;;;5016099;28;20029;-91
2022/08/26 06:04:24;;;;;;;5.18;0.95;;;20.80;99.90;;;;;;5026344;28;20061;-86
2022/08/26 06:06:50;;;;;;;2.55;0.32;;;20.90;99.90;;;;;;5014516;28;20073;-87
2022/08/26 06:09:16;;;;;;;3.58;0.32;;;20.90;99.90;;;;;;5018288;28;20026;-93
2022/08/26 06:11:41;;;;;;;3.90;0.40;;;20.90;99.90;;;;;;5011825;28;20030;-92
2022/08/26 06:14:07;;;;;;;5.55;0.50;;;21.00;99.90;;;;;;5015743;28;20120;-91
2022/08/26 06:16:37;;;;;;;3.75;0.38;;;21.00;99.90;;;;;;5004719;28;20454;-91
2022/08/26 06:19:04;;;;;;;3.13;0.30;;;21.00;99.90;;;;;;5005147;28;20034;-91
2022/08/26 06:21:33;;;;;;;11.63;1.38;;;21.00;99.90;;;;;;5007167;28;20120;-91
2022/08/26 06:27:00;;;;;;;4.95;0.40;;;21.10;99.90;;;;;;5019349;28;20037;-91
2022/08/26 06:29:27;;;;;;;6.93;0.70;;;21.10;99.90;;;;;;5013158;28;20029;-94
2022/08/26 06:31:54;;;;;;;4.45;0.32;;;21.10;99.90;;;;;;5036532;28;20025;-93
2022/08/26 06:34:20;;;;;;;2.00;0.25;;;21.10;99.90;;;;;;5030678;28;20029;-93
2022/08/26 06:36:46;;;;;;;3.92;0.30;;;21.10;99.90;;;;;;5020070;28;20089;-93
2022/08/26 06:39:14;;;;;;;4.65;0.30;;;21.20;99.90;;;;;;5019726;28;20024;-93
2022/08/26 06:41:42;;;;;;;5.97;1.30;;;21.10;99.90;;;;;;5018544;28;20100;-93
2022/08/26 06:44:08;;;;;;;3.35;0.47;;;21.20;99.90;;;;;;5000002;28;20030;-93
2022/08/26 06:46:33;;;;;;;6.40;0.40;;;21.20;99.90;;;;;;5005358;28;20026;-92
2022/08/26 06:48:59;;;;;;;3.22;0.40;;;21.20;99.90;;;;;;5019003;28;20037;-93
2022/08/26 06:51:27;;;;;;;7.57;0.60;;;21.20;99.90;;;;;;5017654;28;20037;-92
2022/08/26 06:53:54;;;;;;;5.15;0.40;;;21.20;99.90;;;;;;5015336;28;20025;-92
2022/08/26 06:56:23;;;;;;;4.70;0.40;;;21.30;99.90;;;;;;5017244;28;20112;-92
2022/08/26 06:58:49;;;;;;;3.88;0.47;;;21.30;99.90;;;;;;5019772;28;20056;-93
2022/08/26 07:01:16;;;;;;;6.20;0.45;;;21.40;99.90;;;;;;5024624;28;20036;-91
2022/08/26 07:03:42;;;;;;;6.13;0.40;;;21.40;99.90;;;;;;5019799;28;20458;-91
2022/08/26 07:06:07;;;;;;;4.55;0.40;;;21.50;99.90;;;;;;5021584;28;20132;-92
2022/08/26 07:08:33;;;;;;;4.25;0.40;;;21.50;99.90;;;;;;5020201;28;20079;-91
2022/08/26 07:11:04;;;;;;;2.50;0.30;;;21.50;99.90;;;;;;5030404;28;20542;-92
2022/08/26 07:13:29;;;;;;;4.63;0.40;;;21.50;99.90;;;;;;5039309;28;20092;-93
2022/08/26 07:15:56;;;;;;;6.35;0.40;;;21.50;99.90;;;;;;5026822;28;20084;-92
2022/08/26 07:18:22;;;;;;;1.85;0.30;;;21.50;99.90;;;;;;5019763;28;20025;-91
2022/08/26 07:20:47;;;;;;;4.28;0.40;;;21.50;99.90;;;;;;5019915;28;20026;-92
2022/08/26 07:23:13;;;;;;;4.15;0.35;;;21.50;99.90;;;;;;5019058;28;20037;-93
2022/08/26 07:25:40;;;;;;;2.90;0.40;;;21.50;99.90;;;;;;5019266;28;20478;-93
2022/08/26 07:28:07;;;;;;;5.82;0.45;;;21.50;99.90;;;;;;5019067;28;20033;-93
2022/08/26 07:30:37;;;;;;;5.25;0.30;;;21.40;99.90;;;;;;5018777;28;20028;-91
2022/08/26 07:33:03;;;;;;;4.20;0.40;;;21.50;99.90;;;;;;5018467;28;20041;-90
2022/08/26 07:35:28;;;;;;;5.07;0.40;;;21.50;99.90;;;;;;5019040;28;20022;-91
2022/08/26 07:37:54;;;;;;;5.07;0.60;;;21.50;99.90;;;;;;5018172;28;20017;-94
2022/08/26 07:40:20;;;;;;;7.18;0.47;;;21.40;99.90;;;;;;5019177;28;20033;-91
2022/08/26 07:42:46;;;;;;;5.30;0.50;;;21.50;99.90;;;;;;5018560;28;20029;-93
2022/08/26 07:45:12;;;;;;;4.05;0.55;;;21.50;99.90;;;;;;5018733;28;20493;-92
2022/08/26 07:47:37;;;;;;;6.68;0.40;;;21.40;99.90;;;;;;5023896;28;20029;-93
2022/08/26 07:50:03;;;;;;;3.53;0.30;;;21.40;99.90;;;;;;5025187;28;20056;-93
2022/08/26 07:52:31;;;;;;;5.10;0.98;;;21.40;99.90;;;;;;5017568;28;20037;-93
2022/08/26 07:54:59;;;;;;;14.48;0.70;;;21.40;99.90;;;;;;5001743;28;20026;-91
2022/08/26 07:57:26;;;;;;;7.47;0.40;;;21.40;99.90;;;;;;5012966;28;20124;-83
2022/08/26 07:59:52;;;;;;;7.00;0.50;;;21.50;99.90;;;;;;5015943;28;20030;-84
2022/08/26 08:02:17;;;;;;;4.60;0.30;;;21.60;99.90;;;;;;5007952;28;20079;-83
2022/08/26 08:04:43;;;;;;;4.32;0.32;;;21.70;99.90;;;;;;5013544;28;20102;-83
2022/08/26 08:07:09;;;;;;;3.67;0.40;;;21.80;99.90;;;;;;5013073;28;20041;-84
2022/08/26 08:09:34;;;;;;;2.83;0.50;;;21.90;99.90;;;;;;5013048;28;20026;-84
2022/08/26 08:12:00;;;;;;;4.50;0.40;;;21.90;99.90;;;;;;5013634;28;20033;-84
2022/08/26 08:14:26;;;;;;;6.80;0.55;;;21.90;99.90;;;;;;5012467;28;20375;-83
2022/08/26 08:16:51;;;;;;;5.72;0.50;;;22.10;99.90;;;;;;5014534;28;20029;-84
2022/08/26 08:19:17;;;;;;;4.95;0.65;;;22.10;99.90;;;;;;5013479;28;20025;-83
2022/08/26 08:21:43;;;;;;;4.10;0.40;;;22.10;99.90;;;;;;5018207;28;20034;-84
2022/08/26 08:24:10;;;;;;;10.45;0.77;;;22.20;99.90;;;;;;5007246;28;20386;-84
2022/08/26 08:26:35;;;;;;;5.00;0.30;;;22.40;99.90;;;;;;5004755;28;20397;-83
2022/08/26 08:29:01;;;;;;;8.20;0.35;;;22.50;99.90;;;;;;5001385;28;20030;-84
2022/08/26 08:31:30;;;;;;;3.08;0.40;;;22.50;99.90;;;;;;5014027;28;20029;-84
2022/08/26 08:33:56;;;;;;;4.03;0.30;;;22.50;99.90;;;;;;5016350;28;20048;-84
2022/08/26 08:36:21;;;;;;;5.22;0.30;;;22.40;99.90;;;;;;5006597;28;20021;-84
2022/08/26 08:38:47;;;;;;;11.57;0.40;;;22.40;99.90;;;;;;5012030;28;20087;-84
2022/08/26 08:41:50;;;;;;;2.80;0.20;;;22.30;99.90;;;;;;5016225;28;20540;-83
2022/08/26 08:44:22;;;;;;;5.22;0.30;;;22.40;99.90;;;;;;4997747;28;20057;-84
2022/08/26 08:46:54;;;;;;;5.50;0.40;;;22.30;99.90;;;;;;5031685;28;20037;-83
2022/08/26 08:49:21;;;;;;;3.55;0.30;;;22.30;99.90;;;;;;5018143;28;20033;-84
2022/08/26 08:52:08;;;;;;;6.35;0.40;;;22.30;99.90;;;;;;5014765;28;20056;-84
2022/08/26 08:54:34;;;;;;;3.05;0.30;;;22.30;99.90;;;;;;5016487;28;20037;-84
2022/08/26 08:57:06;;;;;;;5.63;0.50;;;22.20;99.90;;;;;;5014266;28;20030;-84
2022/08/26 08:59:35;;;;;;;;;;;22.20;99.90;;;;;;4998685;28;20026;-83
2022/08/26 09:02:15;;;;;;;7.32;0.30;;;22.20;99.90;;;;;;5013097;28;19909;-84
2022/08/26 09:05:18;;;;;;;6.15;0.40;;;22.20;99.90;;;;;;5030870;28;20095;-84
2022/08/26 09:07:51;;;;;;;4.18;0.30;;;22.20;99.90;;;;;;4997749;28;20041;-83
2022/08/26 09:10:29;;;;;;;3.75;0.28;;;22.30;99.90;;;;;;5010783;28;20589;-83
2022/08/26 09:12:55;;;;;;;2.83;0.40;;;22.40;99.90;;;;;;5011512;28;20048;-85
2022/08/26 09:15:26;;;;;;;7.32;0.43;;;22.40;99.90;;;;;;5002255;28;20037;-85
2022/08/26 09:18:22;;;;;;;7.70;0.68;;;22.40;99.90;;;;;;5020038;28;20426;-84
2022/08/26 09:20:51;;;;;;;5.72;0.32;;;22.30;99.90;;;;;;5002277;28;20465;-86
2022/08/26 09:23:18;;;;;;;5.13;0.40;;;22.20;99.90;;;;;;5021982;28;20068;-86
2022/08/26 09:25:45;;;;;;;2.90;0.30;;;22.20;99.90;;;;;;5025071;28;20026;-85
2022/08/26 09:28:16;;;;;;;9.52;0.45;;;22.10;99.90;;;;;;5011052;28;20029;-85
2022/08/26 09:30:44;;;;;;;3.67;0.40;;;22.10;99.90;;;;;;5027342;28;20025;-85
2022/08/26 09:33:16;;;;;;;6.18;0.57;;;22.10;99.90;;;;;;5011231;28;20152;-91
2022/08/26 09:35:47;;;;;;;5.03;0.30;;;22.10;99.90;;;;;;5035386;28;20112;-92
2022/08/26 09:38:40;;;;;;;8.57;0.30;;;22.10;99.90;;;;;;5035189;28;20025;-91
2022/08/26 09:41:19;;;;;;;2.65;0.30;;;22.00;99.90;;;;;;5005951;28;20498;-91
2022/08/26 09:44:16;;;;;;;7.05;0.50;;;22.00;99.90;;;;;;4998326;28;20498;-92
2022/08/26 09:46:54;;;;;;;4.95;0.40;;;22.10;99.90;;;;;;4998602;28;20113;-90
2022/08/26 09:49:35;;;;;;;6.95;0.40;;;22.00;99.90;;;;;;4998793;28;20425;-91
2022/08/26 09:52:18;;;;;;;4.47;0.75;;;22.00;99.90;;;;;;5038290;28;20388;-90
2022/08/26 09:54:59;;;;;;;3.17;0.30;;;22.00;99.90;;;;;;5018292;28;20029;-91
2022/08/26 09:57:28;;;;;;;3.88;0.45;;;22.00;99.90;;;;;;5014349;28;20389;-93
2022/08/26 09:59:54;;;;;;;4.72;0.93;;;22.00;99.90;;;;;;5035548;28;20030;-92
2022/08/26 10:02:31;;;;;;;2.72;0.20;;;22.00;99.90;;;;;;5017220;28;20035;-90
2022/08/26 10:04:59;;;;;;;4.72;0.20;;;22.00;99.90;;;;;;5026347;28;20033;-91
2022/08/26 10:07:47;;;;;;;5.45;0.30;;;22.00;99.90;;;;;;5017607;28;20038;-94
2022/08/26 10:10:22;;;;;;;4.90;0.20;;;22.10;99.90;;;;;;5017939;28;20021;-92
2022/08/26 10:13:10;;;;;;;4.68;0.50;;;22.00;99.90;;;;;;5022763;28;20025;-93
2022/08/26 10:15:44;;;;;;;5.20;0.30;;;22.00;99.90;;;;;;5017644;28;20021;-91
2022/08/26 10:18:18;;;;;;;9.90;0.47;;;22.10;99.90;;;;;;5017181;28;20025;-91
2022/08/26 10:21:13;;;;;;;9.57;0.40;;;22.10;99.90;;;;;;5017293;28;20453;-92
2022/08/26 10:23:46;;;;;;;5.68;0.43;;;22.00;99.90;;;;;;5009366;28;20050;-90
2022/08/26 10:26:25;;;;;;;5.50;0.30;;;22.10;99.90;;;;;;5017548;28;20024;-90
2022/08/26 10:28:53;;;;;;;4.07;0.47;;;22.00;99.90;;;;;;5017424;28;20092;-92
2022/08/26 10:31:40;;;;;;;4.55;0.30;;;22.00;99.90;;;;;;5014048;28;20408;-90
2022/08/26 10:34:08;;;;;;;4.65;0.20;;;22.00;99.90;;;;;;5001740;28;20053;-90
2022/08/26 10:36:48;;;;;;;6.57;0.55;;;22.00;99.90;;;;;;5030627;28;20056;-91
2022/08/26 10:39:27;;;;;;;2.95;0.30;;;22.00;99.90;;;;;;5014734;28;20503;-84
2022/08/26 10:41:58;;;;;;;3.60;0.20;;;22.00;99.90;;;;;;5003761;28;20028;-84
2022/08/26 10:44:25;;;;;;;4.88;0.30;;;22.10;99.90;;;;;;5032363;28;20037;-83
2022/08/26 10:46:56;;;;;;;2.40;0.30;;;22.00;99.90;;;;;;5013800;28;20132;-83
2022/08/26 10:49:21;;;;;;;4.82;0.35;;;22.00;99.90;;;;;;5015522;28;20456;-84
2022/08/26 10:51:56;;;;;;;5.28;0.50;;;22.00;99.90;;;;;;5014116;28;20033;-84
2022/08/26 10:54:30;;;;;;;16.38;0.65;;;21.90;99.90;;;;;;5009957;28;20036;-84
2022/08/26 10:57:13;;;;;;;5.63;0.40;;;21.90;99.90;;;;;;5013494;28;20075;-84
2022/08/26 10:59:55;;;;;;;2.83;0.25;;;21.80;99.90;;;;;;4999852;28;20026;-83
2022/08/26 11:02:37;;;;;;;4.65;0.30;;;21.70;99.90;;;;;;5026346;28;20123;-86
2022/08/26 11:05:15;;;;;;;6.78;0.68;;;21.50;99.90;;;;;;5013382;28;20041;-86
2022/08/26 11:07:44;;;;;;;2.85;0.28;;;21.50;99.90;;;;;;5042393;28;20448;-86
2022/08/26 11:10:19;;;;;;;5.10;0.30;;;21.50;99.90;;;;;;5035538;28;20040;-86
2022/08/26 11:13:05;;;;;;;5.55;0.30;;;21.50;99.90;;;;;;5017428;28;20430;-85
2022/08/26 11:15:31;;;;;;;3.30;0.22;;;21.50;99.90;;;;;;5021038;28;20021;-86
2022/08/26 11:17:59;;;;;;;4.63;0.30;;;21.60;99.90;;;;;;5017177;28;20030;-85
2022/08/26 11:20:38;;;;;;;3.75;0.25;;;21.70;99.90;;;;;;5018432;28;20034;-84
2022/08/26 11:23:36;;;;;;;1.67;0.20;;;21.70;99.90;;;;;;5015654;28;20046;-84
2022/08/26 11:26:07;;;;;;;2.88;0.30;;;21.80;99.90;;;;;;4997880;28;20040;-86
2022/08/26 11:28:42;;;;;;;4.00;0.55;;;21.80;99.90;;;;;;4998636;28;20037;-84
2022/08/26 11:31:10;;;;;;;4.95;0.20;;;21.80;99.90;;;;;;5031575;28;20060;-85
2022/08/26 11:33:59;;;;;;;3.88;0.20;;;21.70;99.90;;;;;;5019166;28;20033;-84
2022/08/26 11:36:42;;;;;;;1.58;0.20;;;21.70;99.90;;;;;;5018729;28;20021;-85
2022/08/26 11:39:18;;;;;;;5.70;0.35;;;21.70;99.90;;;;;;5011789;28;20026;-85
2022/08/26 11:41:47;;;;;;;2.83;0.28;;;21.60;99.90;;;;;;4998338;28;20030;-85
2022/08/26 11:44:34;;;;;;;3.70;0.20;;;21.60;99.90;;;;;;5000252;28;20037;-87
2022/08/26 11:47:01;;;;;;;3.65;0.20;;;21.60;99.90;;;;;;5032801;28;20052;-84
2022/08/26 11:49:28;;;;;;;2.45;0.20;;;21.60;99.90;;;;;;5027597;28;20105;-85
2022/08/26 11:52:16;;;;;;;3.05;0.30;;;21.50;99.90;;;;;;5006797;28;20094;-86
2022/08/26 11:55:04;;;;;;;4.75;0.20;;;21.50;99.90;;;;;;5027300;28;20442;-85
2022/08/26 11:57:33;;;;;;;3.63;0.30;;;21.60;99.90;;;;;;5024944;28;20053;-85
2022/08/26 12:00:00;;;;;;;2.50;0.10;;;21.60;99.90;;;;;;5017258;28;20112;-86
2022/08/26 12:02:26;;;;;;;5.95;0.50;;;21.70;99.90;;;;;;5014787;28;20105;-86
2022/08/26 12:04:53;;;;;;;2.60;0.20;;;21.80;99.90;;;;;;5018592;28;20033;-91
2022/08/26 12:07:27;;;;;;;6.25;0.30;;;21.90;99.90;;;;;;5016478;28;20137;-90
2022/08/26 12:09:58;;;;;;;2.95;0.20;;;22.00;99.90;;;;;;5019715;28;20060;-90
2022/08/26 12:12:29;;;;;;;3.65;0.35;;;22.10;99.90;;;;;;5025770;28;20517;-90
2022/08/26 12:15:09;;;;;;;1.50;0.20;;;22.20;99.90;;;;;;5020321;28;20128;-90
2022/08/26 12:17:36;;;;;;;2.72;0.22;;;22.30;99.90;;;;;;5021672;28;20018;-90
2022/08/26 12:20:02;;;;;;;6.40;0.30;;;22.50;99.90;;;;;;5021530;28;20247;-90
2022/08/26 12:22:31;;;;;;;4.05;0.20;;;22.50;99.90;;;;;;5015575;28;20172;-90
2022/08/26 12:25:04;;;;;;;1.90;0.30;;;22.60;99.90;;;;;;5002106;28;20030;-90
2022/08/26 12:27:38;;;;;;;3.28;0.25;;;22.70;99.90;;;;;;5021659;28;20035;-90
2022/08/26 12:30:18;;;;;;;4.18;0.30;;;22.80;99.90;;;;;;5021619;28;20378;-90
2022/08/26 12:32:50;;;;;;;4.47;0.40;;;22.90;99.90;;;;;;5015896;28;20026;-90
2022/08/26 12:35:18;;;;;;;3.63;0.20;;;22.80;99.90;;;;;;5028677;28;20385;-89
2022/08/26 12:37:48;;;;;;;2.83;0.22;;;22.80;99.90;;;;;;5020986;28;20056;-90
2022/08/26 12:40:39;;;;;;;2.20;0.20;;;22.70;99.90;;;;;;5019066;28;20026;-88
2022/08/26 12:43:07;;;;;;;1.63;0.10;;;22.60;99.90;;;;;;5016423;28;20017;-90
2022/08/26 12:45:42;;;;;;;4.93;0.50;;;22.40;99.90;;;;;;5028819;28;20397;-89
2022/08/26 12:48:20;;;;;;;2.08;0.20;;;22.40;99.90;;;;;;5021785;28;20022;-90
2022/08/26 12:50:48;;;;;;;5.13;0.43;;;22.40;99.90;;;;;;5036585;28;20021;-87
2022/08/26 12:53:22;;;;;;;2.03;0.20;;;22.40;99.90;;;;;;5018817;28;20034;-87
2022/08/26 12:55:56;;;;;;;3.10;0.55;;;22.30;99.90;;;;;;5020261;28;20096;-88
2022/08/26 12:58:27;;;;;;;4.32;0.28;;;22.30;99.90;;;;;;5020097;28;20030;-87
2022/08/26 13:01:05;;;;;;;28.35;0.80;;;22.30;99.90;;;;;;5020015;28;20029;-87
2022/08/26 13:03:37;;;;;;;4.95;0.40;;;22.40;99.90;;;;;;5015528;28;20046;-85
2022/08/26 13:06:17;;;;;;;4.38;0.30;;;22.50;99.90;;;;;;5009184;28;20085;-87